createdAt,value
2023-03-11T00:02:37.942Z,11.90
2023-03-11T00:05:38.067Z,11.90
2023-03-11T00:08:21.069Z,11.90
2023-03-11T00:11:08.942Z,11.90
2023-03-11T00:13:55.949Z,12.00
2023-03-11T00:16:42.960Z,12.00
2023-03-11T00:19:22.997Z,12.00
2023-03-11T00:22:09.942Z,12.20
2023-03-11T00:24:49.995Z,12.20
2023-03-11T00:27:36.950Z,12.20
2023-03-11T00:30:20.020Z,12.20
2023-03-11T00:33:07.960Z,12.20
2023-03-11T00:35:55.020Z,12.20
2023-03-11T00:38:35.468Z,12.10
2023-03-11T00:41:21.956Z,12.10
2023-03-11T00:44:09.947Z,12.10
2023-03-11T00:46:50.010Z,12.20
2023-03-11T00:49:36.938Z,12.20
2023-03-11T00:52:17.041Z,12.20
2023-03-11T00:55:05.971Z,12.20
2023-03-11T00:57:46.029Z,12.20
2023-03-11T01:00:33.956Z,12.30
2023-03-11T01:03:15.046Z,12.30
2023-03-11T01:06:01.993Z,12.30
2023-03-11T01:08:43.001Z,12.30
2023-03-11T01:11:29.939Z,12.20
2023-03-11T01:14:10.032Z,12.30
2023-03-11T01:16:57.934Z,12.20
2023-03-11T01:19:44.968Z,12.20
2023-03-11T01:22:25.458Z,12.20
2023-03-11T01:25:11.954Z,12.20
2023-03-11T01:27:58.941Z,12.20
2023-03-11T01:30:38.999Z,12.20
2023-03-11T01:33:25.948Z,12.20
2023-03-11T01:36:06.053Z,12.10
2023-03-11T01:38:52.958Z,12.20
2023-03-11T01:41:33.002Z,12.20
2023-03-11T01:44:19.938Z,12.20
2023-03-11T01:47:08.934Z,12.30
2023-03-11T01:49:49.457Z,12.30
2023-03-11T01:52:36.939Z,12.30
2023-03-11T01:55:25.927Z,12.40
2023-03-11T01:58:09.018Z,12.40
2023-03-11T02:00:56.937Z,12.40
2023-03-11T02:03:50.913Z,12.50
2023-03-11T02:06:38.984Z,12.50
2023-03-11T02:09:19.936Z,12.50
2023-03-11T02:12:08.010Z,12.50
2023-03-11T02:15:00.942Z,12.50
2023-03-11T02:17:50.103Z,12.50
2023-03-11T02:20:51.941Z,12.50
2023-03-11T02:23:46.945Z,12.50
2023-03-11T02:26:51.015Z,12.50
2023-03-11T02:29:40.230Z,12.50
2023-03-11T02:32:21.139Z,12.50
2023-03-11T02:35:07.940Z,12.60
2023-03-11T02:37:55.064Z,12.50
2023-03-11T02:41:04.947Z,12.50
2023-03-11T02:43:52.040Z,12.50
2023-03-11T02:46:38.980Z,12.50
2023-03-11T02:49:20.993Z,12.50
2023-03-11T02:52:07.940Z,12.50
2023-03-11T02:54:47.987Z,12.50
2023-03-11T02:57:34.945Z,12.50
2023-03-11T03:00:17.354Z,12.50
2023-03-11T03:03:11.952Z,12.50
2023-03-11T03:06:06.953Z,12.50
2023-03-11T03:08:47.484Z,12.50
2023-03-11T03:11:33.946Z,12.50
2023-03-11T03:14:14.428Z,12.50
2023-03-11T03:17:01.094Z,12.50
2023-03-11T03:19:47.933Z,12.50
2023-03-11T03:22:29.434Z,12.50
2023-03-11T03:25:16.957Z,12.60
2023-03-11T03:27:57.983Z,12.50
2023-03-11T03:30:47.959Z,12.60
2023-03-11T03:33:28.978Z,12.60
2023-03-11T03:36:19.941Z,12.60
2023-03-11T03:39:04.997Z,12.60
2023-03-11T03:41:51.949Z,12.60
2023-03-11T03:44:34.012Z,12.60
2023-03-11T03:47:21.923Z,12.50
2023-03-11T03:50:02.016Z,12.50
2023-03-11T03:52:49.939Z,12.50
2023-03-11T03:55:31.027Z,12.50
2023-03-11T03:58:17.946Z,12.40
2023-03-11T04:01:04.074Z,12.40
2023-03-11T04:03:51.941Z,12.40
2023-03-11T04:06:33.992Z,12.40
2023-03-11T04:09:21.946Z,12.40
2023-03-11T04:12:08.959Z,12.30
2023-03-11T04:14:49.529Z,12.40
2023-03-11T04:17:36.947Z,12.40
2023-03-11T04:20:17.514Z,12.40
2023-03-11T04:23:05.953Z,12.40
2023-03-11T04:25:46.436Z,12.40
2023-03-11T04:28:32.960Z,12.40
2023-03-11T04:31:20.015Z,12.40
2023-03-11T04:34:06.956Z,12.40
2023-03-11T04:36:47.429Z,12.40
2023-03-11T04:39:36.926Z,12.40
2023-03-11T04:42:25.942Z,12.40
2023-03-11T04:45:07.024Z,12.40
2023-03-11T04:47:56.952Z,12.40
2023-03-11T04:50:38.980Z,12.40
2023-03-11T04:53:20.949Z,12.40
2023-03-11T04:56:01.472Z,12.40
2023-03-11T04:58:49.927Z,12.40
2023-03-11T05:01:31.479Z,12.40
2023-03-11T05:04:19.966Z,12.40
2023-03-11T05:07:06.943Z,12.40
2023-03-11T05:09:53.935Z,12.40
2023-03-11T05:12:40.944Z,12.40
2023-03-11T05:15:20.999Z,12.40
2023-03-11T05:18:07.944Z,12.40
2023-03-11T05:20:55.950Z,12.40
2023-03-11T05:23:45.412Z,12.40
2023-03-11T05:26:24.961Z,12.40
2023-03-11T05:29:05.479Z,12.40
2023-03-11T05:31:51.946Z,12.40
2023-03-11T05:34:32.464Z,12.40
2023-03-11T05:37:19.933Z,12.40
2023-03-11T05:40:01.499Z,12.40
2023-03-11T05:42:50.956Z,12.40
2023-03-11T05:45:32.458Z,12.40
2023-03-11T05:48:19.941Z,12.40
2023-03-11T05:51:06.944Z,12.40
2023-03-11T05:53:59.964Z,12.40
2023-03-11T05:56:45.804Z,12.40
2023-03-11T05:59:32.960Z,12.40
2023-03-11T06:02:13.433Z,12.40
2023-03-11T06:05:01.120Z,12.40
2023-03-11T06:07:55.949Z,12.40
2023-03-11T06:10:36.464Z,12.40
2023-03-11T06:13:23.944Z,12.40
2023-03-11T06:16:18.967Z,12.40
2023-03-11T06:19:06.957Z,12.40
2023-03-11T06:21:58.924Z,12.40
2023-03-11T06:24:39.503Z,12.40
2023-03-11T06:27:25.929Z,12.40
2023-03-11T06:30:07.343Z,12.50
2023-03-11T06:33:01.939Z,12.50
2023-03-11T06:35:49.057Z,12.50
2023-03-11T06:38:29.945Z,12.50
2023-03-11T06:41:17.025Z,12.60
2023-03-11T06:43:57.933Z,12.60
2023-03-11T06:46:38.522Z,12.60
2023-03-11T06:49:25.925Z,12.70
2023-03-11T06:52:15.008Z,12.70
2023-03-11T06:54:54.939Z,12.80
2023-03-11T06:57:35.620Z,12.90
2023-03-11T07:00:24.939Z,13.00
2023-03-11T07:03:12.973Z,13.10
2023-03-11T07:05:59.934Z,13.20
2023-03-11T07:08:40.035Z,13.30
2023-03-11T07:11:31.951Z,13.40
2023-03-11T07:14:17.071Z,13.50
2023-03-11T07:17:07.952Z,13.60
2023-03-11T07:20:00.941Z,13.80
2023-03-11T07:22:47.950Z,14.00
2023-03-11T07:25:34.949Z,14.20
2023-03-11T07:28:15.441Z,14.40
2023-03-11T07:31:01.956Z,14.50
2023-03-11T07:33:42.618Z,14.80
2023-03-11T07:36:31.967Z,15.00
2023-03-11T07:39:24.938Z,15.20
2023-03-11T07:42:05.544Z,15.50
2023-03-11T07:44:51.967Z,15.80
2023-03-11T07:47:32.004Z,16.10
2023-03-11T07:50:18.953Z,16.60
2023-03-11T07:52:59.014Z,17.20
2023-03-11T07:55:45.947Z,17.70
2023-03-11T07:58:26.030Z,18.30
2023-03-11T08:01:23.934Z,18.90
2023-03-11T08:04:05.240Z,19.30
2023-03-11T08:06:53.951Z,19.70
2023-03-11T08:09:34.016Z,20.10
2023-03-11T08:12:21.929Z,20.50
2023-03-11T08:15:08.949Z,20.80
2023-03-11T08:17:49.457Z,21.20
2023-03-11T08:20:35.941Z,21.50
2023-03-11T08:23:16.636Z,21.80
2023-03-11T08:26:02.954Z,21.90
2023-03-11T08:28:51.034Z,22.10
2023-03-11T08:31:34.097Z,22.30
2023-03-11T08:34:22.329Z,22.50
2023-03-11T08:37:01.951Z,22.70
2023-03-11T08:39:48.997Z,23.00
2023-03-11T08:42:37.178Z,23.20
2023-03-11T08:45:18.022Z,23.30
2023-03-11T08:48:04.953Z,23.50
2023-03-11T08:50:54.258Z,23.60
2023-03-11T08:53:40.930Z,23.70
2023-03-11T08:56:21.043Z,23.80
2023-03-11T08:59:08.073Z,23.80
2023-03-11T09:01:48.161Z,23.90
2023-03-11T09:04:34.974Z,23.90
2023-03-11T09:07:22.019Z,24.00
2023-03-11T09:10:01.943Z,24.20
2023-03-11T09:12:48.952Z,24.40
2023-03-11T09:15:35.966Z,24.50
2023-03-11T09:18:17.498Z,24.50
2023-03-11T09:21:04.959Z,24.30
2023-03-11T09:23:51.959Z,24.20
2023-03-11T09:26:32.996Z,23.90
2023-03-11T09:29:19.998Z,23.80
2023-03-11T09:31:59.996Z,23.70
2023-03-11T09:34:47.989Z,23.60
2023-03-11T09:37:30.155Z,23.50
2023-03-11T09:40:23.988Z,23.40
2023-03-11T09:43:29.015Z,23.30
2023-03-11T09:46:44.000Z,23.20
2023-03-11T09:49:54.023Z,23.20
2023-03-11T09:53:09.970Z,23.50
2023-03-11T09:56:01.974Z,23.70
2023-03-11T09:58:55.316Z,23.90
2023-03-11T10:01:49.004Z,24.10
2023-03-11T10:04:52.005Z,24.40
2023-03-11T10:07:44.962Z,24.60
2023-03-11T10:10:25.018Z,24.70
2023-03-11T10:13:30.978Z,24.60
2023-03-11T10:16:22.988Z,24.50
2023-03-11T10:19:34.982Z,24.40
2023-03-11T10:22:29.970Z,24.10
2023-03-11T10:25:28.287Z,23.90
2023-03-11T10:28:17.979Z,23.80
2023-03-11T10:31:12.559Z,23.90
2023-03-11T10:34:01.996Z,23.90
2023-03-11T10:37:46.283Z,24.00
2023-03-11T10:40:42.978Z,24.20
2023-03-11T10:43:31.815Z,24.30
2023-03-11T10:46:39.979Z,24.40
2023-03-11T10:49:20.694Z,24.50
2023-03-11T10:52:07.997Z,24.50
2023-03-11T10:55:06.980Z,24.50
2023-03-11T10:57:47.696Z,24.50
2023-03-11T11:00:37.977Z,24.60
2023-03-11T11:03:37.001Z,24.60
2023-03-11T11:06:53.996Z,24.70
2023-03-11T11:09:34.504Z,24.50
2023-03-11T11:12:28.004Z,24.30
2023-03-11T11:15:28.982Z,24.00
2023-03-11T11:18:13.057Z,23.70
2023-03-11T11:21:12.996Z,23.50
2023-03-11T11:24:08.100Z,23.30
2023-03-11T11:27:17.981Z,23.10
2023-03-11T11:30:16.130Z,22.80
2023-03-11T11:33:20.981Z,22.70
2023-03-11T11:36:02.036Z,22.50
2023-03-11T11:38:49.002Z,22.50
2023-03-11T11:41:38.981Z,22.30
2023-03-11T11:44:24.538Z,22.20
2023-03-11T11:47:39.987Z,22.10
2023-03-11T11:50:40.008Z,22.00
2023-03-11T11:53:37.049Z,21.90
2023-03-11T11:56:23.986Z,21.90
2023-03-11T11:59:11.006Z,21.70
2023-03-11T12:02:23.099Z,21.60
2023-03-11T12:05:15.009Z,21.50
2023-03-11T12:08:26.987Z,21.40
2023-03-11T12:11:13.229Z,21.30
2023-03-11T12:14:12.989Z,21.20
2023-03-11T12:17:08.057Z,21.10
2023-03-11T12:19:56.981Z,21.00
2023-03-11T12:23:11.998Z,20.90
2023-03-11T12:26:32.982Z,20.80
2023-03-11T12:29:45.612Z,20.80
2023-03-11T12:32:50.034Z,21.00
2023-03-11T12:35:42.086Z,21.10
2023-03-11T12:38:32.008Z,21.30
2023-03-11T12:41:15.463Z,21.40
2023-03-11T12:44:02.027Z,21.50
2023-03-11T12:47:08.990Z,21.50
2023-03-11T12:49:55.260Z,21.60
2023-03-11T12:52:59.985Z,21.70
2023-03-11T12:55:42.061Z,21.70
2023-03-11T12:58:54.999Z,21.70
2023-03-11T13:01:48.041Z,21.70
2023-03-11T13:04:50.993Z,21.70
2023-03-11T13:07:48.121Z,21.70
2023-03-11T13:10:41.999Z,21.70
2023-03-11T13:13:25.261Z,21.70
2023-03-11T13:16:32.047Z,21.70
2023-03-11T13:20:02.008Z,21.70
2023-03-11T13:22:58.625Z,21.70
2023-03-11T13:25:50.012Z,21.70
2023-03-11T13:28:52.292Z,21.80
2023-03-11T13:31:56.015Z,21.70
2023-03-11T13:35:01.100Z,21.70
2023-03-11T13:37:51.129Z,21.70
2023-03-11T13:40:42.109Z,21.60
2023-03-11T13:43:38.018Z,21.60
2023-03-11T13:46:45.002Z,21.60
2023-03-11T13:49:49.013Z,21.50
2023-03-11T13:52:53.562Z,21.50
2023-03-11T13:55:48.022Z,21.40
2023-03-11T13:58:36.026Z,21.40
2023-03-11T14:01:23.182Z,21.40
2023-03-11T14:04:17.062Z,21.30
2023-03-11T14:06:58.117Z,21.30
2023-03-11T14:09:46.013Z,21.30
2023-03-11T14:12:26.071Z,21.20
2023-03-11T14:15:16.038Z,21.20
2023-03-11T14:17:58.061Z,21.10
2023-03-11T14:20:45.066Z,21.10
2023-03-11T14:23:27.087Z,21.00
2023-03-11T14:26:35.057Z,20.90
2023-03-11T14:29:21.150Z,20.90
2023-03-11T14:32:08.008Z,20.80
2023-03-11T14:34:48.515Z,20.70
2023-03-11T14:37:53.011Z,20.60
2023-03-11T14:40:37.785Z,20.60
2023-03-11T14:43:25.068Z,20.50
2023-03-11T14:46:07.351Z,20.40
2023-03-11T14:48:57.017Z,20.30
2023-03-11T14:51:44.017Z,20.20
2023-03-11T14:54:42.045Z,20.10
2023-03-11T14:57:39.774Z,20.00
2023-03-11T15:00:35.020Z,20.00
2023-03-11T15:03:33.083Z,19.90
2023-03-11T15:06:18.098Z,19.80
2023-03-11T15:09:24.064Z,19.80
2023-03-11T15:12:07.084Z,19.70
2023-03-11T15:14:58.014Z,19.60
2023-03-11T15:17:43.784Z,19.60
2023-03-11T15:20:38.024Z,19.50
2023-03-11T15:23:35.013Z,19.40
2023-03-11T15:26:25.347Z,19.40
2023-03-11T15:29:28.022Z,19.40
2023-03-11T15:32:39.445Z,19.40
2023-03-11T15:35:36.060Z,19.30
2023-03-11T15:38:28.466Z,19.20
2023-03-11T15:41:09.025Z,19.00
2023-03-11T15:43:49.785Z,19.00
2023-03-11T15:46:36.106Z,19.00
2023-03-11T15:49:16.519Z,19.00
2023-03-11T15:52:03.057Z,19.00
2023-03-11T15:54:54.479Z,19.00
2023-03-11T15:57:43.039Z,19.00
2023-03-11T16:00:24.395Z,18.90
2023-03-11T16:03:11.018Z,18.80
2023-03-11T16:05:58.027Z,18.80
2023-03-11T16:08:52.023Z,18.70
2023-03-11T16:11:40.030Z,18.70
2023-03-11T16:14:27.082Z,18.70
2023-03-11T16:17:14.037Z,18.70
2023-03-11T16:19:54.088Z,18.70
2023-03-11T16:22:43.020Z,18.70
2023-03-11T16:25:41.036Z,18.70
2023-03-11T16:28:21.587Z,18.70
2023-03-11T16:31:09.083Z,18.60
2023-03-11T16:34:03.014Z,18.60
2023-03-11T16:36:50.106Z,18.60
2023-03-11T16:39:30.046Z,18.50
2023-03-11T16:42:17.023Z,18.60
2023-03-11T16:45:04.228Z,18.50
2023-03-11T16:47:44.542Z,18.40
2023-03-11T16:50:34.170Z,18.40
2023-03-11T16:53:16.177Z,18.40
2023-03-11T16:56:03.052Z,18.30
2023-03-11T16:58:50.147Z,18.30
2023-03-11T17:01:30.118Z,18.30
2023-03-11T17:04:10.623Z,18.20
2023-03-11T17:06:57.059Z,18.20
2023-03-11T17:09:45.061Z,18.20
2023-03-11T17:12:25.793Z,18.00
2023-03-11T17:15:14.028Z,18.00
2023-03-11T17:18:01.049Z,18.00
2023-03-11T17:20:50.016Z,18.00
2023-03-11T17:23:30.473Z,17.90
2023-03-11T17:26:22.031Z,17.90
2023-03-11T17:29:09.052Z,18.00
2023-03-11T17:31:56.033Z,17.90
2023-03-11T17:34:43.025Z,17.90
2023-03-11T17:37:37.033Z,17.90
2023-03-11T17:40:24.180Z,17.90
2023-03-11T17:43:04.081Z,17.90
2023-03-11T17:45:51.085Z,17.80
2023-03-11T17:48:31.080Z,17.80
2023-03-11T17:51:21.034Z,17.80
2023-03-11T17:54:09.042Z,17.70
2023-03-11T17:56:56.100Z,17.70
2023-03-11T17:59:36.040Z,17.70
2023-03-11T18:02:23.187Z,17.70
2023-03-11T18:05:03.050Z,17.60
2023-03-11T18:07:50.044Z,17.60
2023-03-11T18:10:37.038Z,17.60
2023-03-11T18:13:24.030Z,17.60
2023-03-11T18:16:15.102Z,17.50
2023-03-11T18:19:03.050Z,17.50
2023-03-11T18:21:50.055Z,17.50
2023-03-11T18:24:30.202Z,17.40
2023-03-11T18:27:17.069Z,17.40
2023-03-11T18:30:04.047Z,17.30
2023-03-11T18:32:44.753Z,17.40
2023-03-11T18:35:31.111Z,17.30
2023-03-11T18:38:11.634Z,17.30
2023-03-11T18:41:04.047Z,17.30
2023-03-11T18:43:51.055Z,17.20
2023-03-11T18:46:31.906Z,17.20
2023-03-11T18:49:19.037Z,17.20
2023-03-11T18:52:06.034Z,17.20
2023-03-11T18:54:46.210Z,17.20
2023-03-11T18:57:33.046Z,17.20
2023-03-11T19:00:13.376Z,17.10
2023-03-11T19:03:01.042Z,17.10
2023-03-11T19:05:41.090Z,17.10
2023-03-11T19:08:28.056Z,17.10
2023-03-11T19:11:19.036Z,17.00
2023-03-11T19:14:06.058Z,17.00
2023-03-11T19:16:53.120Z,17.00
2023-03-11T19:19:40.056Z,17.00
2023-03-11T19:22:27.062Z,17.00
2023-03-11T19:25:14.085Z,17.00
2023-03-11T19:27:54.061Z,16.90
2023-03-11T19:30:34.583Z,16.90
2023-03-11T19:33:21.060Z,16.90
2023-03-11T19:36:09.221Z,16.90
2023-03-11T19:38:49.061Z,16.90
2023-03-11T19:41:29.574Z,16.90
2023-03-11T19:44:16.048Z,16.80
2023-03-11T19:46:56.198Z,16.80
2023-03-11T19:49:43.046Z,16.80
2023-03-11T19:52:30.053Z,16.80
2023-03-11T19:55:17.050Z,16.80
2023-03-11T19:58:04.047Z,16.80
2023-03-11T20:00:53.062Z,16.80
2023-03-11T20:03:40.115Z,16.80
2023-03-11T20:06:23.102Z,16.80
2023-03-11T20:09:11.289Z,16.70
2023-03-11T20:11:52.057Z,16.70
2023-03-11T20:14:32.603Z,16.70
2023-03-11T20:17:19.056Z,16.70
2023-03-11T20:19:59.216Z,16.70
2023-03-11T20:22:46.086Z,16.70
2023-03-11T20:25:26.974Z,16.70
2023-03-11T20:28:15.068Z,16.70
2023-03-11T20:31:02.226Z,16.70
2023-03-11T20:33:44.054Z,16.60
2023-03-11T20:36:33.360Z,16.60
2023-03-11T20:39:13.063Z,16.60
2023-03-11T20:42:00.198Z,16.60
2023-03-11T20:44:40.062Z,16.60
2023-03-11T20:47:27.048Z,16.60
2023-03-11T20:50:14.088Z,16.60
2023-03-11T20:52:54.672Z,16.60
2023-03-11T20:55:41.068Z,16.60
2023-03-11T20:58:21.564Z,16.60
2023-03-11T21:01:08.085Z,16.60
2023-03-11T21:03:49.144Z,16.60
2023-03-11T21:06:32.748Z,16.50
2023-03-11T21:09:24.040Z,16.50
2023-03-11T21:12:04.948Z,16.50
2023-03-11T21:14:52.148Z,16.50
2023-03-11T21:17:40.249Z,16.50
2023-03-11T21:20:20.044Z,16.50
2023-03-11T21:23:00.690Z,16.50
2023-03-11T21:25:49.091Z,16.50
2023-03-11T21:28:36.056Z,16.50
2023-03-11T21:31:23.221Z,16.50
2023-03-11T21:34:10.067Z,16.40
2023-03-11T21:36:50.112Z,16.50
2023-03-11T21:39:37.038Z,16.40
2023-03-11T21:42:24.198Z,16.40
2023-03-11T21:45:11.072Z,16.40
2023-03-11T21:47:51.219Z,16.40
2023-03-11T21:50:38.057Z,16.40
2023-03-11T21:53:25.075Z,16.30
2023-03-11T21:56:05.880Z,16.20
2023-03-11T21:58:53.059Z,16.10
2023-03-11T22:01:47.096Z,16.00
2023-03-11T22:04:27.705Z,15.90
2023-03-11T22:07:14.117Z,15.90
2023-03-11T22:09:54.667Z,15.80
2023-03-11T22:12:41.151Z,15.70
2023-03-11T22:15:21.855Z,15.70
2023-03-11T22:18:08.164Z,15.60
2023-03-11T22:20:55.102Z,15.60
2023-03-11T22:23:42.055Z,15.50
2023-03-11T22:26:29.076Z,15.50
2023-03-11T22:29:09.336Z,15.40
2023-03-11T22:31:56.059Z,15.40
2023-03-11T22:34:36.133Z,15.30
2023-03-11T22:37:23.064Z,15.30
2023-03-11T22:40:04.263Z,15.20
2023-03-11T22:42:51.053Z,15.20
2023-03-11T22:45:31.151Z,15.20
2023-03-11T22:48:18.065Z,15.10
2023-03-11T22:51:05.074Z,15.00
2023-03-11T22:53:45.672Z,15.00
2023-03-11T22:56:33.059Z,15.00
2023-03-11T22:59:20.113Z,14.90
2023-03-11T23:02:00.104Z,14.90
2023-03-11T23:04:43.626Z,14.90
2023-03-11T23:07:30.069Z,14.80
2023-03-11T23:10:21.381Z,14.80
2023-03-11T23:13:01.062Z,14.80
2023-03-11T23:15:43.601Z,14.70
2023-03-11T23:18:30.050Z,14.70
2023-03-11T23:21:15.736Z,14.60
2023-03-11T23:24:02.050Z,14.60
2023-03-11T23:26:49.198Z,14.60
2023-03-11T23:29:29.083Z,14.60
2023-03-11T23:32:10.060Z,14.60
2023-03-11T23:34:57.084Z,14.50
2023-03-11T23:37:44.134Z,14.50
2023-03-11T23:40:25.077Z,14.50
2023-03-11T23:43:12.175Z,14.50
2023-03-11T23:45:52.092Z,14.50
2023-03-11T23:48:32.575Z,14.50
2023-03-11T23:51:20.035Z,14.40
2023-03-11T23:54:07.067Z,14.40
2023-03-11T23:57:09.059Z,14.40
2023-03-11T23:59:56.080Z,14.40
